createdAt,value
2023-05-12T00:00:25.644Z,553.6154
2023-05-12T00:01:26.699Z,553.6923
2023-05-12T00:02:28.432Z,554.5385
2023-05-12T00:03:30.589Z,555.8461
2023-05-12T00:04:31.727Z,556.2308
2023-05-12T00:05:33.269Z,553.5385
2023-05-12T00:06:34.935Z,552.8461
2023-05-12T00:07:36.614Z,552.9231
2023-05-12T00:08:38.237Z,551.5385
2023-05-12T00:09:39.888Z,553.6923
2023-05-12T00:10:41.494Z,553.6923
2023-05-12T00:11:43.163Z,552.0000
2023-05-12T00:12:44.790Z,550.3846
2023-05-12T00:13:46.684Z,548.3077
2023-05-12T00:14:48.238Z,549.4615
2023-05-12T00:15:49.873Z,550.8461
2023-05-12T00:16:51.734Z,548.6154
2023-05-12T00:17:53.274Z,547.1539
2023-05-12T00:18:54.855Z,547.2308
2023-05-12T00:19:56.915Z,548.0769
2023-05-12T00:20:58.983Z,549.0769
2023-05-12T00:21:59.748Z,549.8461
2023-05-12T00:23:01.343Z,549.0000
2023-05-12T00:24:03.094Z,550.0000
2023-05-12T00:25:04.702Z,550.3077
2023-05-12T00:26:06.311Z,551.3077
2023-05-12T00:27:07.905Z,550.8461
2023-05-12T00:28:09.698Z,549.6154
2023-05-12T00:29:11.318Z,547.6923
2023-05-12T00:30:12.939Z,547.5385
2023-05-12T00:31:14.551Z,547.4615
2023-05-12T00:32:16.199Z,549.2308
2023-05-12T00:33:17.835Z,548.3077
2023-05-12T00:34:19.593Z,547.1539
2023-05-12T00:35:21.086Z,545.2308
2023-05-12T00:36:22.806Z,545.6154
2023-05-12T00:37:24.406Z,545.0769
2023-05-12T00:38:26.057Z,546.3077
2023-05-12T00:39:27.796Z,548.6923
2023-05-12T00:40:29.398Z,548.7692
2023-05-12T00:41:30.999Z,549.2308
2023-05-12T00:42:32.725Z,549.6154
2023-05-12T00:43:34.329Z,547.0000
2023-05-12T00:44:36.000Z,548.3846
2023-05-12T00:45:37.718Z,548.6923
2023-05-12T00:46:39.240Z,547.4615
2023-05-12T00:47:40.917Z,546.7692
2023-05-12T00:48:42.570Z,545.3846
2023-05-12T00:49:44.284Z,545.0000
2023-05-12T00:50:45.901Z,544.0000
2023-05-12T00:51:47.513Z,544.1539
2023-05-12T00:52:49.189Z,545.3077
2023-05-12T00:53:50.933Z,546.6923
2023-05-12T00:54:52.606Z,547.6923
2023-05-12T00:55:54.161Z,546.3846
2023-05-12T00:56:55.930Z,545.3846
2023-05-12T00:57:57.482Z,543.7692
2023-05-12T00:58:59.133Z,542.5385
2023-05-12T01:00:00.862Z,543.5385
2023-05-12T01:01:02.468Z,544.4615
2023-05-12T01:02:04.061Z,544.4615
2023-05-12T01:03:05.923Z,544.8461
2023-05-12T01:04:07.372Z,544.1539
2023-05-12T01:05:09.088Z,543.1539
2023-05-12T01:06:10.641Z,545.8461
2023-05-12T01:07:12.336Z,546.5385
2023-05-12T01:08:13.925Z,544.7692
2023-05-12T01:09:15.622Z,545.3846
2023-05-12T01:10:17.373Z,549.3846
2023-05-12T01:11:18.897Z,550.3077
2023-05-12T01:12:20.505Z,550.6154
2023-05-12T01:13:22.218Z,549.1539
2023-05-12T01:14:23.938Z,551.0000
2023-05-12T01:15:25.645Z,551.8461
2023-05-12T01:16:27.123Z,553.6154
2023-05-12T01:17:28.897Z,552.3077
2023-05-12T01:18:30.566Z,551.3077
2023-05-12T01:19:32.172Z,551.1539
2023-05-12T01:20:33.730Z,551.9231
2023-05-12T01:21:35.482Z,551.4615
2023-05-12T01:22:37.909Z,551.6154
2023-05-12T01:23:38.712Z,548.2308
2023-05-12T01:24:40.399Z,547.3846
2023-05-12T01:25:42.049Z,546.4615
2023-05-12T01:26:43.675Z,546.7692
2023-05-12T01:27:45.396Z,548.6923
2023-05-12T01:28:46.960Z,550.6154
2023-05-12T01:29:48.665Z,552.6154
2023-05-12T01:30:50.366Z,552.4615
2023-05-12T01:31:51.902Z,552.6923
2023-05-12T01:32:53.571Z,553.4615
2023-05-12T01:33:55.189Z,552.5385
2023-05-12T01:34:56.854Z,553.1539
2023-05-12T01:35:58.562Z,551.3077
2023-05-12T01:37:00.164Z,552.6154
2023-05-12T01:38:02.138Z,554.6923
2023-05-12T01:39:03.455Z,553.3846
2023-05-12T01:40:05.071Z,551.9231
2023-05-12T01:41:06.788Z,551.9231
2023-05-12T01:42:08.444Z,555.1539
2023-05-12T01:43:10.070Z,555.8461
2023-05-12T01:44:11.699Z,555.6923
2023-05-12T01:45:13.358Z,556.6154
2023-05-12T01:46:15.503Z,557.3077
2023-05-12T01:47:16.713Z,559.0769
2023-05-12T01:48:18.272Z,558.3846
2023-05-12T01:49:19.950Z,556.3077
2023-05-12T01:50:21.800Z,556.6154
2023-05-12T01:51:23.346Z,556.4615
2023-05-12T01:52:24.907Z,555.7692
2023-05-12T01:53:26.615Z,553.8461
2023-05-12T01:54:28.184Z,553.3846
2023-05-12T01:55:29.846Z,553.6154
2023-05-12T01:56:32.480Z,557.3846
2023-05-12T01:57:33.130Z,556.3077
2023-05-12T01:58:34.804Z,553.8461
2023-05-12T01:59:36.398Z,554.6923
2023-05-12T02:00:38.172Z,556.8461
2023-05-12T02:01:39.750Z,557.0769
2023-05-12T02:02:43.071Z,556.1539
2023-05-12T02:03:43.166Z,555.6154
2023-05-12T02:04:44.750Z,554.0000
2023-05-12T02:05:46.275Z,552.6154
2023-05-12T02:06:47.996Z,551.3077
2023-05-12T02:07:49.627Z,552.3077
2023-05-12T02:08:51.967Z,553.3077
2023-05-12T02:09:52.859Z,554.3077
2023-05-12T02:10:54.553Z,557.6154
2023-05-12T02:11:56.282Z,559.4615
2023-05-12T02:12:57.912Z,560.8461
2023-05-12T02:13:59.462Z,560.8461
2023-05-12T02:15:01.231Z,558.0769
2023-05-12T02:16:02.898Z,558.7692
2023-05-12T02:17:04.548Z,557.6154
2023-05-12T02:18:06.175Z,556.9231
2023-05-12T02:19:07.805Z,556.8461
2023-05-12T02:20:09.397Z,554.0769
2023-05-12T02:21:11.037Z,552.5385
2023-05-12T02:22:12.689Z,554.4615
2023-05-12T02:23:14.347Z,554.3077
2023-05-12T02:24:15.918Z,555.3846
2023-05-12T02:25:17.606Z,556.6923
2023-05-12T02:26:19.194Z,554.6154
2023-05-12T02:27:20.938Z,554.3846
2023-05-12T02:28:22.567Z,555.2308
2023-05-12T02:29:24.239Z,555.4615
2023-05-12T02:30:25.823Z,556.3846
2023-05-12T02:31:27.605Z,555.9231
2023-05-12T02:32:29.505Z,553.4615
2023-05-12T02:33:30.819Z,551.0769
2023-05-12T02:34:32.475Z,551.3846
2023-05-12T02:35:34.096Z,552.0000
2023-05-12T02:36:35.727Z,553.1539
2023-05-12T02:37:37.505Z,554.5385
2023-05-12T02:38:39.001Z,557.0769
2023-05-12T02:39:40.680Z,558.1539
2023-05-12T02:40:42.324Z,560.0769
2023-05-12T02:41:44.955Z,559.7692
2023-05-12T02:42:45.588Z,359.6154
2023-05-12T02:43:47.206Z,445.7692
2023-05-12T02:44:48.855Z,393.6154
2023-05-12T02:45:50.642Z,603.6923
2023-05-12T02:46:52.120Z,561.5385
2023-05-12T02:47:53.926Z,551.7692
2023-05-12T02:48:55.479Z,550.6154
2023-05-12T02:49:57.104Z,552.2308
2023-05-12T02:50:58.720Z,551.8461
2023-05-12T02:52:00.418Z,552.8461
2023-05-12T02:53:02.085Z,553.3077
2023-05-12T02:54:03.674Z,553.5385
2023-05-12T02:55:05.359Z,554.1539
2023-05-12T02:56:06.992Z,554.0000
2023-05-12T02:57:08.639Z,554.6154
2023-05-12T02:58:10.307Z,556.0000
2023-05-12T02:59:11.945Z,555.4615
2023-05-12T03:00:13.580Z,555.1539
2023-05-12T03:01:15.212Z,553.6923
2023-05-12T03:02:16.892Z,553.5385
2023-05-12T03:03:18.553Z,552.3846
2023-05-12T03:04:20.142Z,550.8461
2023-05-12T03:05:21.803Z,550.9231
2023-05-12T03:06:23.460Z,549.4615
2023-05-12T03:07:25.146Z,547.1539
2023-05-12T03:08:26.818Z,545.1539
2023-05-12T03:09:28.370Z,545.6923
2023-05-12T03:10:30.051Z,546.2308
2023-05-12T03:11:31.652Z,547.2308
2023-05-12T03:12:33.288Z,548.4615
2023-05-12T03:13:35.440Z,547.6154
2023-05-12T03:14:36.657Z,547.3846
2023-05-12T03:15:38.237Z,546.0000
2023-05-12T03:16:40.553Z,545.3846
2023-05-12T03:17:41.581Z,545.0769
2023-05-12T03:18:43.229Z,547.3077
2023-05-12T03:19:44.802Z,549.2308
2023-05-12T03:20:46.518Z,547.1539
2023-05-12T03:21:48.084Z,548.5385
2023-05-12T03:22:49.770Z,547.8461
2023-05-12T03:23:51.452Z,547.3846
2023-05-12T03:24:53.072Z,548.0000
2023-05-12T03:25:54.668Z,548.6923
2023-05-12T03:26:56.320Z,552.3077
2023-05-12T03:27:57.972Z,551.9231
2023-05-12T03:28:59.674Z,550.3846
2023-05-12T03:30:01.252Z,548.4615
2023-05-12T03:31:03.117Z,544.9231
2023-05-12T03:32:04.585Z,545.2308
2023-05-12T03:33:06.253Z,547.2308
2023-05-12T03:34:07.915Z,547.9231
2023-05-12T03:35:09.633Z,547.4615
2023-05-12T03:36:11.139Z,547.3077
2023-05-12T03:37:12.859Z,547.3846
2023-05-12T03:38:14.440Z,543.6923
2023-05-12T03:39:16.191Z,544.0769
2023-05-12T03:40:18.975Z,545.2308
2023-05-12T03:41:19.407Z,546.6923
2023-05-12T03:42:21.048Z,546.3846
2023-05-12T03:43:22.761Z,546.0769
2023-05-12T03:44:24.363Z,545.4615
2023-05-12T03:45:26.062Z,542.7692
2023-05-12T03:46:27.661Z,542.0769
2023-05-12T03:47:29.463Z,542.8461
2023-05-12T03:48:30.971Z,544.4615
2023-05-12T03:49:32.567Z,544.6154
2023-05-12T03:50:34.258Z,543.3846
2023-05-12T03:51:35.978Z,543.0000
2023-05-12T03:52:37.513Z,542.4615
2023-05-12T03:53:39.188Z,544.5385
2023-05-12T03:54:40.809Z,546.1539
2023-05-12T03:55:42.965Z,546.6923
2023-05-12T03:56:44.133Z,547.0000
2023-05-12T03:57:45.744Z,545.4615
2023-05-12T03:58:47.436Z,544.3077
2023-05-12T03:59:49.102Z,540.8461
2023-05-12T04:00:50.732Z,542.2308
2023-05-12T04:01:52.392Z,546.4615
2023-05-12T04:02:54.038Z,548.3077
2023-05-12T04:03:55.729Z,549.6923
2023-05-12T04:04:57.281Z,548.6923
2023-05-12T04:05:58.967Z,549.7692
2023-05-12T04:07:00.650Z,550.9231
2023-05-12T04:08:02.228Z,550.1539
2023-05-12T04:09:03.896Z,550.0000
2023-05-12T04:10:05.540Z,547.7692
2023-05-12T04:11:07.481Z,545.0000
2023-05-12T04:12:08.793Z,543.8461
2023-05-12T04:13:10.460Z,542.9231
2023-05-12T04:14:12.083Z,543.1539
2023-05-12T04:15:13.799Z,541.9231
2023-05-12T04:16:15.524Z,541.4615
2023-05-12T04:17:17.041Z,543.6923
2023-05-12T04:18:18.697Z,545.0000
2023-05-12T04:19:20.329Z,546.3077
2023-05-12T04:20:22.121Z,546.4615
2023-05-12T04:21:24.494Z,546.2308
2023-05-12T04:22:25.817Z,545.3077
2023-05-12T04:23:26.945Z,544.5385
2023-05-12T04:24:28.648Z,543.2308
2023-05-12T04:25:30.234Z,542.0000
2023-05-12T04:26:31.872Z,541.9231
2023-05-12T04:27:33.526Z,545.3846
2023-05-12T04:28:35.176Z,546.5385
2023-05-12T04:29:36.825Z,548.3077
2023-05-12T04:30:38.470Z,551.0769
2023-05-12T04:31:40.177Z,553.3077
2023-05-12T04:32:41.789Z,553.9231
2023-05-12T04:33:43.464Z,553.6923
2023-05-12T04:34:45.951Z,553.2308
2023-05-12T04:35:47.453Z,553.1539
2023-05-12T04:36:48.389Z,554.3846
2023-05-12T04:37:50.973Z,553.8461
2023-05-12T04:38:51.699Z,554.6923
2023-05-12T04:39:53.280Z,551.5385
2023-05-12T04:40:54.914Z,546.6923
2023-05-12T04:41:56.666Z,547.0000
2023-05-12T04:42:58.232Z,549.3077
2023-05-12T04:44:00.380Z,548.8461
2023-05-12T04:45:01.505Z,544.8461
2023-05-12T04:46:03.222Z,542.7692
2023-05-12T04:47:04.875Z,543.5385
2023-05-12T04:48:07.501Z,542.0769
2023-05-12T04:49:09.095Z,542.9231
2023-05-12T04:50:09.950Z,541.0769
2023-05-12T04:51:11.604Z,538.6923
2023-05-12T04:52:13.228Z,537.1539
2023-05-12T04:53:14.828Z,537.0769
2023-05-12T04:54:16.495Z,534.7692
2023-05-12T04:55:18.429Z,533.7692
2023-05-12T04:56:19.883Z,535.8461
2023-05-12T04:57:21.653Z,536.3846
2023-05-12T04:58:23.141Z,534.1539
2023-05-12T04:59:24.731Z,533.2308
2023-05-12T05:00:26.516Z,533.5385
2023-05-12T05:01:28.106Z,545.7692
2023-05-12T05:02:30.270Z,562.5385
2023-05-12T05:03:31.492Z,534.2308
2023-05-12T05:04:33.047Z,527.3846
2023-05-12T05:05:34.658Z,528.3846
2023-05-12T05:06:36.306Z,534.6154
2023-05-12T05:07:38.947Z,543.2308
2023-05-12T05:08:40.443Z,558.2308
2023-05-12T05:09:41.291Z,516.2308
2023-05-12T05:10:42.868Z,528.9231
2023-05-12T05:11:44.586Z,540.6923
2023-05-12T05:12:46.171Z,565.3077
2023-05-12T05:13:47.841Z,546.4615
2023-05-12T05:14:50.425Z,533.2308
2023-05-12T05:15:51.295Z,526.8461
2023-05-12T05:16:52.750Z,530.0000
2023-05-12T05:17:54.647Z,562.7692
2023-05-12T05:18:57.614Z,543.0000
2023-05-12T05:19:59.226Z,535.0000
2023-05-12T05:20:59.522Z,524.6154
2023-05-12T05:22:01.021Z,537.4615
2023-05-12T05:23:02.724Z,534.6154
2023-05-12T05:24:04.346Z,574.2308
2023-05-12T05:25:05.930Z,574.6923
2023-05-12T05:26:07.667Z,575.6154
2023-05-12T05:27:09.230Z,525.0769
2023-05-12T05:28:10.966Z,523.6154
2023-05-12T05:29:12.548Z,531.1539
2023-05-12T05:30:14.256Z,540.8461
2023-05-12T05:31:15.866Z,561.2308
2023-05-12T05:32:17.499Z,532.9231
2023-05-12T05:33:19.250Z,525.0769
2023-05-12T05:34:20.812Z,532.1539
2023-05-12T05:35:22.635Z,590.3077
2023-05-12T05:36:24.046Z,547.3846
2023-05-12T05:37:25.717Z,543.8461
2023-05-12T05:38:28.225Z,539.9231
2023-05-12T05:39:28.958Z,529.3846
2023-05-12T05:40:38.536Z,542.1539
2023-05-12T05:41:32.471Z,593.7692
2023-05-12T05:42:34.058Z,552.8461
2023-05-12T05:43:35.623Z,534.3077
2023-05-12T05:44:37.182Z,530.8461
2023-05-12T05:45:38.888Z,531.3077
2023-05-12T05:46:40.547Z,564.6154
2023-05-12T05:47:42.220Z,567.1539
2023-05-12T05:48:43.859Z,584.7692
2023-05-12T05:49:45.468Z,544.0769
2023-05-12T05:50:47.089Z,520.3077
2023-05-12T05:51:48.751Z,528.5385
2023-05-12T05:52:50.404Z,579.6154
2023-05-12T05:53:52.107Z,534.7692
2023-05-12T05:54:53.714Z,570.7692
2023-05-12T05:55:55.694Z,523.3846
2023-05-12T05:56:57.264Z,527.7692
2023-05-12T05:57:58.710Z,550.2308
2023-05-12T05:59:00.272Z,548.0769
2023-05-12T06:00:01.999Z,548.2308
2023-05-12T06:01:04.091Z,521.9231
2023-05-12T06:02:05.294Z,525.6923
2023-05-12T06:03:06.991Z,532.5385
2023-05-12T06:04:09.544Z,556.0769
2023-05-12T06:05:10.146Z,556.3846
2023-05-12T06:06:12.957Z,534.3846
2023-05-12T06:07:13.452Z,519.2308
2023-05-12T06:08:15.035Z,519.6923
2023-05-12T06:09:16.734Z,547.1539
2023-05-12T06:10:18.622Z,576.5385
2023-05-12T06:11:19.983Z,534.6154
2023-05-12T06:12:21.570Z,559.4615
2023-05-12T06:13:23.245Z,512.5385
2023-05-12T06:14:25.100Z,521.6923
2023-05-12T06:15:26.584Z,566.6923
2023-05-12T06:16:28.240Z,560.8461
2023-05-12T06:17:32.066Z,548.0000
2023-05-12T06:18:31.490Z,561.3077
2023-05-12T06:19:33.722Z,517.9231
2023-05-12T06:20:34.769Z,526.9231
2023-05-12T06:21:36.428Z,553.7692
2023-05-12T06:22:38.056Z,563.6154
2023-05-12T06:23:39.774Z,544.0769
2023-05-12T06:24:41.401Z,546.6154
2023-05-12T06:25:43.029Z,539.1539
2023-05-12T06:26:44.675Z,532.7692
2023-05-12T06:27:46.316Z,544.6154
2023-05-12T06:28:47.984Z,541.4615
2023-05-12T06:29:49.604Z,543.0769
2023-05-12T06:30:51.220Z,540.0769
2023-05-12T06:31:52.902Z,539.1539
2023-05-12T06:32:54.519Z,530.3846
2023-05-12T06:33:56.159Z,548.2308
2023-05-12T06:34:57.846Z,539.1539
2023-05-12T06:35:59.543Z,535.4615
2023-05-12T06:37:01.074Z,526.9231
2023-05-12T06:38:02.805Z,521.6923
2023-05-12T06:39:04.418Z,523.7692
2023-05-12T06:40:06.072Z,535.8461
2023-05-12T06:41:08.669Z,526.1539
2023-05-12T06:42:09.385Z,545.4615
2023-05-12T06:43:10.978Z,525.5385
2023-05-12T06:44:12.643Z,521.3846
2023-05-12T06:45:14.287Z,522.7692
2023-05-12T06:46:16.030Z,532.2308
2023-05-12T06:47:17.544Z,548.5385
2023-05-12T06:48:19.172Z,536.3846
2023-05-12T06:49:20.796Z,522.3846
2023-05-12T06:50:22.572Z,519.3077
2023-05-12T06:51:24.135Z,524.8461
2023-05-12T06:52:26.490Z,534.3846
2023-05-12T06:53:27.371Z,536.5385
2023-05-12T06:54:29.144Z,565.0769
2023-05-12T06:55:30.717Z,535.0769
2023-05-12T06:56:32.453Z,528.1539
2023-05-12T06:57:34.047Z,530.3077
2023-05-12T06:58:35.619Z,541.3846
2023-05-12T06:59:37.304Z,543.7692
2023-05-12T07:00:39.669Z,548.9231
2023-05-12T07:01:40.691Z,531.0769
2023-05-12T07:02:42.280Z,527.8461
2023-05-12T07:03:43.855Z,529.6923
2023-05-12T07:04:45.625Z,557.9231
2023-05-12T07:05:47.189Z,546.3077
2023-05-12T07:06:48.912Z,542.1539
2023-05-12T07:07:50.576Z,525.8461
2023-05-12T07:08:52.157Z,521.3077
2023-05-12T07:09:53.738Z,523.0000
2023-05-12T07:10:55.467Z,532.4615
2023-05-12T07:11:57.126Z,537.7692
2023-05-12T07:12:58.722Z,535.2308
2023-05-12T07:14:00.377Z,529.7692
2023-05-12T07:15:02.017Z,526.0769
2023-05-12T07:16:03.626Z,527.5385
2023-05-12T07:17:05.242Z,534.3077
2023-05-12T07:18:06.991Z,532.8461
2023-05-12T07:19:08.672Z,537.6923
2023-05-12T07:20:10.172Z,527.6154
2023-05-12T07:21:11.867Z,523.3077
2023-05-12T07:22:16.179Z,522.0769
2023-05-12T07:23:15.049Z,531.9231
2023-05-12T07:24:16.708Z,546.3077
2023-05-12T07:25:19.150Z,544.7692
2023-05-12T07:26:21.648Z,536.7692
2023-05-12T07:27:21.624Z,533.3846
2023-05-12T07:28:23.276Z,535.6923
2023-05-12T07:29:24.914Z,534.2308
2023-05-12T07:30:26.660Z,538.0769
2023-05-12T07:31:29.197Z,535.1539
2023-05-12T07:32:29.920Z,527.4615
2023-05-12T07:33:32.683Z,529.2308
2023-05-12T07:34:33.208Z,533.1539
2023-05-12T07:35:34.949Z,537.0000
2023-05-12T07:36:36.574Z,535.1539
2023-05-12T07:37:38.356Z,535.3077
2023-05-12T07:38:39.905Z,529.4615
2023-05-12T07:39:41.554Z,527.3846
2023-05-12T07:40:43.140Z,528.0769
2023-05-12T07:41:44.876Z,535.7692
2023-05-12T07:42:46.429Z,539.5385
2023-05-12T07:43:48.276Z,533.7692
2023-05-12T07:44:49.706Z,523.3077
2023-05-12T07:45:51.441Z,524.5385
2023-05-12T07:46:54.100Z,527.5385
2023-05-12T07:47:55.557Z,540.0000
2023-05-12T07:48:56.266Z,524.3077
2023-05-12T07:49:58.693Z,528.6923
2023-05-12T07:50:59.543Z,519.3077
2023-05-12T07:52:01.270Z,517.3846
2023-05-12T07:53:02.856Z,521.4615
2023-05-12T07:54:04.540Z,530.3846
2023-05-12T07:55:06.158Z,535.4615
2023-05-12T07:56:07.861Z,535.7692
2023-05-12T07:57:09.478Z,522.4615
2023-05-12T07:58:11.059Z,521.9231
2023-05-12T07:59:12.754Z,525.3077
2023-05-12T08:00:14.413Z,545.9231
2023-05-12T08:01:16.109Z,544.1539
2023-05-12T08:02:18.202Z,541.6923
2023-05-12T08:03:19.403Z,530.3077
2023-05-12T08:04:21.027Z,526.5385
2023-05-12T08:05:22.701Z,525.2308
2023-05-12T08:06:25.026Z,540.0769
2023-05-12T08:07:26.195Z,540.3846
2023-05-12T08:08:27.516Z,539.5385
2023-05-12T08:09:29.221Z,522.6923
2023-05-12T08:10:30.843Z,517.3077
2023-05-12T08:11:32.475Z,519.7692
2023-05-12T08:12:34.131Z,542.3077
2023-05-12T08:13:35.733Z,536.1539
2023-05-12T08:14:37.335Z,532.8461
2023-05-12T08:15:39.045Z,524.1539
2023-05-12T08:16:40.739Z,520.8461
2023-05-12T08:17:42.359Z,519.4615
2023-05-12T08:18:43.986Z,532.0769
2023-05-12T08:19:45.571Z,524.4615
2023-05-12T08:20:47.249Z,521.6154
2023-05-12T08:21:48.878Z,514.8461
2023-05-12T08:22:52.173Z,515.3077
2023-05-12T08:23:53.209Z,518.6154
2023-05-12T08:24:54.044Z,524.0769
2023-05-12T08:25:55.600Z,537.8461
2023-05-12T08:26:57.359Z,531.9231
2023-05-12T08:27:58.976Z,524.2308
2023-05-12T08:29:00.599Z,522.8461
2023-05-12T08:30:02.223Z,521.4615
2023-05-12T08:31:05.127Z,527.3846
2023-05-12T08:32:05.421Z,533.6154
2023-05-12T08:33:07.213Z,531.1539
2023-05-12T08:34:10.906Z,519.7692
2023-05-12T08:35:10.391Z,518.6923
2023-05-12T08:36:11.987Z,518.9231
2023-05-12T08:37:13.783Z,520.1539
2023-05-12T08:38:15.662Z,521.3846
2023-05-12T08:39:16.957Z,530.2308
2023-05-12T08:40:18.571Z,523.6154
2023-05-12T08:41:20.257Z,516.1539
2023-05-12T08:42:21.960Z,511.2308
2023-05-12T08:43:23.624Z,514.3846
2023-05-12T08:44:25.172Z,527.3077
2023-05-12T08:45:26.913Z,526.3077
2023-05-12T08:46:28.509Z,527.9231
2023-05-12T08:47:30.145Z,515.0000
2023-05-12T08:48:31.788Z,514.5385
2023-05-12T08:49:33.495Z,515.1539
2023-05-12T08:50:35.128Z,518.0769
2023-05-12T08:51:36.721Z,526.0769
2023-05-12T08:52:38.363Z,530.6923
2023-05-12T08:53:40.057Z,517.4615
2023-05-12T08:54:52.414Z,514.4615
2023-05-12T08:55:48.224Z,516.6923
2023-05-12T08:57:46.627Z,542.1539
2023-05-12T08:58:48.222Z,527.6154
2023-05-12T08:59:49.969Z,526.6923
2023-05-12T09:00:51.604Z,515.1539
2023-05-12T09:01:53.363Z,513.6923
2023-05-12T09:02:55.118Z,517.0000
2023-05-12T09:03:56.598Z,524.6923
2023-05-12T09:04:58.192Z,529.0000
2023-05-12T09:05:59.836Z,522.3846
2023-05-12T09:07:01.459Z,514.5385
2023-05-12T09:08:03.112Z,544.3846
2023-05-12T09:09:04.763Z,546.6923
2023-05-12T09:10:06.419Z,527.0769
2023-05-12T09:11:08.086Z,519.2308
2023-05-12T09:12:10.556Z,526.4615
2023-05-12T09:13:11.343Z,510.6923
2023-05-12T09:14:13.049Z,510.7692
2023-05-12T09:15:14.729Z,513.0769
2023-05-12T09:16:16.334Z,533.4615
2023-05-12T09:17:17.992Z,521.6154
2023-05-12T09:18:19.623Z,518.5385
2023-05-12T09:19:21.186Z,510.2308
2023-05-12T09:20:30.818Z,510.0000
2023-05-12T09:21:24.438Z,514.2500
2023-05-12T09:22:26.084Z,519.0000
2023-05-12T09:23:27.742Z,521.5385
2023-05-12T09:24:29.387Z,533.1539
2023-05-12T09:25:31.078Z,512.3077
2023-05-12T09:26:32.704Z,512.6154
2023-05-12T09:27:34.389Z,515.7692
2023-05-12T09:28:36.020Z,525.1539
2023-05-12T09:29:45.310Z,526.0000
2023-05-12T09:30:39.317Z,535.9231
2023-05-12T09:31:40.959Z,512.3077
2023-05-12T09:32:42.548Z,514.1539
2023-05-12T09:33:44.217Z,519.6154
2023-05-12T09:34:46.595Z,524.0769
2023-05-12T09:35:47.543Z,534.3077
2023-05-12T09:36:49.156Z,530.6923
2023-05-12T09:37:51.846Z,489.3077
2023-05-12T09:38:52.595Z,486.8462
2023-05-12T09:39:54.192Z,495.3077
2023-05-12T09:40:55.873Z,537.3077
2023-05-12T09:41:57.552Z,538.8461
2023-05-12T09:42:59.144Z,526.4615
2023-05-12T09:44:00.894Z,504.6154
2023-05-12T09:45:02.478Z,507.6154
2023-05-12T09:46:04.139Z,517.4615
2023-05-12T09:47:05.800Z,546.2308
2023-05-12T09:48:07.442Z,537.2308
2023-05-12T09:49:09.111Z,527.3077
2023-05-12T09:50:10.741Z,515.2308
2023-05-12T09:51:12.376Z,513.6154
2023-05-12T09:52:14.036Z,522.1539
2023-05-12T09:53:15.709Z,545.0000
2023-05-12T09:54:18.281Z,520.5385
2023-05-12T09:55:19.068Z,515.3846
2023-05-12T09:56:20.645Z,521.6154
2023-05-12T09:57:22.248Z,529.4615
2023-05-12T09:58:23.891Z,536.2308
2023-05-12T09:59:25.576Z,546.2308
2023-05-12T10:00:41.293Z,550.2308
2023-05-12T10:01:28.873Z,544.5385
2023-05-12T10:02:30.725Z,544.8461
2023-05-12T10:03:32.099Z,550.6923
2023-05-12T10:04:33.802Z,569.8461
2023-05-12T10:05:35.400Z,562.0000
2023-05-12T10:06:37.748Z,601.3846
2023-05-12T10:07:38.802Z,534.5385
2023-05-12T10:08:40.509Z,537.0000
2023-05-12T10:09:41.999Z,543.1539
2023-05-12T10:10:43.612Z,539.2308
2023-05-12T10:11:45.348Z,559.8461
2023-05-12T10:12:46.957Z,553.3846
2023-05-12T10:13:48.597Z,541.0769
2023-05-12T10:14:50.207Z,534.8461
2023-05-12T10:15:51.954Z,537.0769
2023-05-12T10:16:54.268Z,536.2308
2023-05-12T10:17:55.264Z,542.4615
2023-05-12T10:18:56.898Z,529.0000
2023-05-12T10:19:58.449Z,525.1539
2023-05-12T10:21:00.240Z,526.7692
2023-05-12T10:22:02.346Z,534.6154
2023-05-12T10:23:03.419Z,540.1539
2023-05-12T10:24:05.053Z,551.0000
2023-05-12T10:25:06.673Z,529.0000
2023-05-12T10:26:08.337Z,524.0000
2023-05-12T10:27:10.752Z,518.6154
2023-05-12T10:28:11.784Z,525.0000
2023-05-12T10:29:13.296Z,530.3846
2023-05-12T10:30:14.944Z,539.4615
2023-05-12T10:31:16.712Z,534.8461
2023-05-12T10:32:19.292Z,529.7692
2023-05-12T10:33:20.358Z,527.4615
2023-05-12T10:34:21.662Z,536.2308
2023-05-12T10:35:23.171Z,545.8461
2023-05-12T10:36:24.844Z,534.3077
2023-05-12T10:37:27.216Z,516.5385
2023-05-12T10:38:28.158Z,517.2308
2023-05-12T10:39:29.718Z,527.3077
2023-05-12T10:40:32.381Z,538.7692
2023-05-12T10:41:33.049Z,543.4615
2023-05-12T10:42:35.275Z,525.1539
2023-05-12T10:43:36.372Z,517.0769
2023-05-12T10:44:38.022Z,515.2308
2023-05-12T10:45:39.663Z,525.0000
2023-05-12T10:46:41.317Z,518.9231
2023-05-12T10:47:43.059Z,532.6923
2023-05-12T10:48:44.597Z,525.6923
2023-05-12T10:49:46.264Z,523.4615
2023-05-12T10:50:47.858Z,522.6923
2023-05-12T10:51:49.524Z,527.9231
2023-05-12T10:52:51.172Z,522.0769
2023-05-12T10:53:54.860Z,529.3077
2023-05-12T10:54:54.509Z,516.3846
2023-05-12T10:55:56.288Z,512.6923
2023-05-12T10:56:57.964Z,512.5385
2023-05-12T10:58:00.154Z,523.8461
2023-05-12T10:59:01.468Z,525.8461
2023-05-12T11:00:03.835Z,527.3077
2023-05-12T11:01:05.055Z,524.6923
2023-05-12T11:02:06.975Z,519.5385
2023-05-12T11:03:10.441Z,517.3846
2023-05-12T11:04:09.410Z,523.4615
2023-05-12T11:05:11.223Z,511.7692
2023-05-12T11:06:12.806Z,531.6923
2023-05-12T11:07:14.707Z,511.1538
2023-05-12T11:08:16.061Z,511.0000
2023-05-12T11:09:18.002Z,510.9231
2023-05-12T11:10:19.706Z,521.3077
2023-05-12T11:11:20.870Z,531.8461
2023-05-12T11:12:22.583Z,542.6154
2023-05-12T11:13:24.192Z,520.3077
2023-05-12T11:14:25.819Z,505.7692
2023-05-12T11:15:27.491Z,520.6154
2023-05-12T11:16:29.155Z,535.8461
2023-05-12T11:17:30.784Z,531.0769
2023-05-12T11:18:32.442Z,514.5385
2023-05-12T11:19:34.074Z,501.3077
2023-05-12T11:20:35.628Z,500.7692
2023-05-12T11:21:37.371Z,521.4615
2023-05-12T11:22:38.979Z,521.3077
2023-05-12T11:23:40.704Z,516.1539
2023-05-12T11:24:42.298Z,515.7692
2023-05-12T11:25:44.451Z,519.2308
2023-05-12T11:26:45.620Z,516.0000
2023-05-12T11:27:47.598Z,535.4615
2023-05-12T11:28:48.913Z,539.0769
2023-05-12T11:29:52.368Z,541.0769
2023-05-12T11:30:54.699Z,501.2308
2023-05-12T11:31:53.876Z,504.8462
2023-05-12T11:32:55.429Z,510.3077
2023-05-12T11:34:10.846Z,522.8461
2023-05-12T11:34:58.801Z,556.3846
2023-05-12T11:36:00.464Z,546.3846
2023-05-12T11:37:02.067Z,540.1539
2023-05-12T11:38:03.742Z,554.4615
2023-05-12T11:39:05.387Z,567.1539
2023-05-12T11:40:07.090Z,571.3846
2023-05-12T11:41:08.620Z,597.2308
2023-05-12T11:42:13.433Z,606.2308
2023-05-12T11:43:12.047Z,599.6154
2023-05-12T11:44:13.663Z,597.5385
2023-05-12T11:45:15.254Z,638.0000
2023-05-12T11:46:17.011Z,621.4615
2023-05-12T11:47:18.588Z,601.3077
2023-05-12T11:48:20.339Z,658.3846
2023-05-12T11:49:22.293Z,649.0769
2023-05-12T11:50:23.568Z,641.0000
2023-05-12T11:51:25.120Z,654.4615
2023-05-12T11:52:26.806Z,634.9231
2023-05-12T11:53:28.499Z,625.6923
2023-05-12T11:54:30.148Z,626.6923
2023-05-12T11:55:31.720Z,618.7692
2023-05-12T11:56:33.429Z,610.3846
2023-05-12T11:57:35.756Z,625.3077
2023-05-12T11:58:36.683Z,589.1539
2023-05-12T11:59:38.797Z,613.3846
2023-05-12T12:00:40.052Z,591.1539
2023-05-12T12:01:41.609Z,591.0769
2023-05-12T12:02:43.471Z,592.3077
2023-05-12T12:03:45.037Z,587.3846
2023-05-12T12:04:46.641Z,579.8461